sensor_id;sensor_type;location;lat;lon;timestamp;pressure;altitude;pressure_sealevel;temperature;humidity
44481;BME280;30184;42.018;23.670;2022-12-07T00:00:07;91504.25;;;5.87;88.13
44481;BME280;30184;42.018;23.670;2022-12-07T00:02:36;91508.88;;;5.87;87.99
44481;BME280;30184;42.018;23.670;2022-12-07T00:05:06;91496.41;;;5.66;87.80
44481;BME280;30184;42.018;23.670;2022-12-07T00:07:35;91520.13;;;5.78;87.50
44481;BME280;30184;42.018;23.670;2022-12-07T00:10:06;91512.50;;;5.73;87.87
44481;BME280;30184;42.018;23.670;2022-12-07T00:12:35;91506.69;;;5.75;88.02
44481;BME280;30184;42.018;23.670;2022-12-07T00:15:07;91510.59;;;5.70;87.79
44481;BME280;30184;42.018;23.670;2022-12-07T00:17:36;91514.09;;;5.67;87.71
44481;BME280;30184;42.018;23.670;2022-12-07T00:20:06;91458.38;;;5.23;87.81
44481;BME280;30184;42.018;23.670;2022-12-07T00:22:36;91510.28;;;5.65;87.72
44481;BME280;30184;42.018;23.670;2022-12-07T00:25:05;91514.13;;;5.63;88.02
44481;BME280;30184;42.018;23.670;2022-12-07T00:27:34;91516.81;;;5.63;87.75
44481;BME280;30184;42.018;23.670;2022-12-07T00:30:04;91511.84;;;5.58;87.74
44481;BME280;30184;42.018;23.670;2022-12-07T00:32:35;91501.09;;;5.58;87.75
44481;BME280;30184;42.018;23.670;2022-12-07T00:35:06;91511.50;;;5.56;87.80
44481;BME280;30184;42.018;23.670;2022-12-07T00:37:35;91495.50;;;5.42;88.16
44481;BME280;30184;42.018;23.670;2022-12-07T00:40:05;91503.94;;;5.44;88.30
44481;BME280;30184;42.018;23.670;2022-12-07T00:42:34;91511.94;;;5.48;88.06
44481;BME280;30184;42.018;23.670;2022-12-07T00:45:04;91508.16;;;5.45;87.71
44481;BME280;30184;42.018;23.670;2022-12-07T00:47:35;91509.69;;;5.46;87.58
44481;BME280;30184;42.018;23.670;2022-12-07T00:50:05;91511.63;;;5.46;87.43
44481;BME280;30184;42.018;23.670;2022-12-07T00:52:34;91513.13;;;5.47;87.31
44481;BME280;30184;42.018;23.670;2022-12-07T00:55:04;91513.13;;;5.47;87.36
44481;BME280;30184;42.018;23.670;2022-12-07T00:57:33;91511.19;;;5.47;87.31
44481;BME280;30184;42.018;23.670;2022-12-07T01:00:02;91505.03;;;5.47;87.45
44481;BME280;30184;42.018;23.670;2022-12-07T01:02:32;91509.31;;;5.44;87.37
44481;BME280;30184;42.018;23.670;2022-12-07T01:05:02;91498.94;;;5.43;87.30
44481;BME280;30184;42.018;23.670;2022-12-07T01:07:31;91499.31;;;5.45;87.44
44481;BME280;30184;42.018;23.670;2022-12-07T01:10:01;91491.25;;;5.45;87.61
44481;BME280;30184;42.018;23.670;2022-12-07T01:12:30;91486.63;;;5.45;87.44
44481;BME280;30184;42.018;23.670;2022-12-07T01:14:59;91481.28;;;5.38;87.33
44481;BME280;30184;42.018;23.670;2022-12-07T01:17:28;91489.66;;;5.47;87.36
44481;BME280;30184;42.018;23.670;2022-12-07T01:19:57;91491.19;;;5.48;87.28
44481;BME280;30184;42.018;23.670;2022-12-07T01:22:28;91466.34;;;5.34;87.35
44481;BME280;30184;42.018;23.670;2022-12-07T01:24:57;91488.94;;;5.43;87.21
44481;BME280;30184;42.018;23.670;2022-12-07T01:27:26;91492.41;;;5.44;86.99
44481;BME280;30184;42.018;23.670;2022-12-07T01:29:55;91481.72;;;5.33;87.18
44481;BME280;30184;42.018;23.670;2022-12-07T01:32:24;91493.25;;;5.37;87.34
44481;BME280;30184;42.018;23.670;2022-12-07T01:34:53;91492.81;;;5.39;87.51
44481;BME280;30184;42.018;23.670;2022-12-07T01:37:23;91470.22;;;5.29;87.48
44481;BME280;30184;42.018;23.670;2022-12-07T01:39:53;91490.09;;;5.42;87.45
44481;BME280;30184;42.018;23.670;2022-12-07T01:42:22;91485.09;;;5.44;87.49
44481;BME280;30184;42.018;23.670;2022-12-07T01:47:58;91486.63;;;5.45;87.53
44481;BME280;30184;42.018;23.670;2022-12-07T01:50:28;91482.00;;;5.46;87.47
44481;BME280;30184;42.018;23.670;2022-12-07T01:53:01;91477.41;;;5.46;87.33
44481;BME280;30184;42.018;23.670;2022-12-07T01:55:34;91476.63;;;5.46;87.43
44481;BME280;30184;42.018;23.670;2022-12-07T01:58:05;91465.44;;;5.47;87.41
44481;BME280;30184;42.018;23.670;2022-12-07T02:00:34;91471.25;;;5.46;87.58
44481;BME280;30184;42.018;23.670;2022-12-07T02:03:05;91485.03;;;5.48;87.80
44481;BME280;30184;42.018;23.670;2022-12-07T02:05:38;91478.91;;;5.47;87.50
44481;BME280;30184;42.018;23.670;2022-12-07T02:08:09;91483.13;;;5.48;87.33
44481;BME280;30184;42.018;23.670;2022-12-07T02:10:42;91468.28;;;5.33;87.06
44481;BME280;30184;42.018;23.670;2022-12-07T02:13:13;91475.44;;;5.47;86.94
44481;BME280;30184;42.018;23.670;2022-12-07T02:16:16;91474.31;;;5.44;86.94
44481;BME280;30184;42.018;23.670;2022-12-07T02:18:58;91468.56;;;5.42;87.00
44481;BME280;30184;42.018;23.670;2022-12-07T02:21:37;91461.69;;;5.38;86.95
44481;BME280;30184;42.018;23.670;2022-12-07T02:24:14;91462.03;;;5.43;87.12
44481;BME280;30184;42.018;23.670;2022-12-07T02:27:07;91468.56;;;5.42;87.60
44481;BME280;30184;42.018;23.670;2022-12-07T02:29:45;91466.66;;;5.43;87.58
44481;BME280;30184;42.018;23.670;2022-12-07T02:32:18;91467.78;;;5.45;87.72
44481;BME280;30184;42.018;23.670;2022-12-07T02:34:54;91460.81;;;5.48;87.58
44481;BME280;30184;42.018;23.670;2022-12-07T02:37:32;91451.59;;;5.49;87.57
44481;BME280;30184;42.018;23.670;2022-12-07T02:40:09;91446.00;;;5.29;87.46
44481;BME280;30184;42.018;23.670;2022-12-07T02:42:42;91457.03;;;5.45;87.60
44481;BME280;30184;42.018;23.670;2022-12-07T02:45:18;91450.47;;;5.46;88.00
44481;BME280;30184;42.018;23.670;2022-12-07T02:47:51;91453.50;;;5.48;88.12
44481;BME280;30184;42.018;23.670;2022-12-07T02:50:22;91444.34;;;5.42;88.10
44481;BME280;30184;42.018;23.670;2022-12-07T02:52:51;91452.34;;;5.49;87.87
44481;BME280;30184;42.018;23.670;2022-12-07T02:55:25;91448.13;;;5.48;87.84
44481;BME280;30184;42.018;23.670;2022-12-07T02:58:14;91442.75;;;5.48;87.90
44481;BME280;30184;42.018;23.670;2022-12-07T03:00:54;91421.41;;;5.31;88.16
44481;BME280;30184;42.018;23.670;2022-12-07T03:03:28;91421.38;;;5.34;88.21
44481;BME280;30184;42.018;23.670;2022-12-07T03:06:11;91448.47;;;5.54;88.28
44481;BME280;30184;42.018;23.670;2022-12-07T03:08:51;91438.94;;;5.46;88.16
44481;BME280;30184;42.018;23.670;2022-12-07T03:11:30;91448.88;;;5.52;88.14
44481;BME280;30184;42.018;23.670;2022-12-07T03:14:08;91441.97;;;5.51;88.10
44481;BME280;30184;42.018;23.670;2022-12-07T03:16:46;91438.47;;;5.54;88.12
44481;BME280;30184;42.018;23.670;2022-12-07T03:19:20;91438.81;;;5.56;88.35
44481;BME280;30184;42.018;23.670;2022-12-07T03:21:55;91436.88;;;5.57;88.43
44481;BME280;30184;42.018;23.670;2022-12-07T03:24:28;91439.56;;;5.57;88.50
44481;BME280;30184;42.018;23.670;2022-12-07T03:27:02;91434.97;;;5.57;88.49
44481;BME280;30184;42.018;23.670;2022-12-07T03:29:35;91409.75;;;5.44;88.34
44481;BME280;30184;42.018;23.670;2022-12-07T03:32:14;91438.78;;;5.60;88.51
44481;BME280;30184;42.018;23.670;2022-12-07T03:34:47;91439.19;;;5.58;88.46
44481;BME280;30184;42.018;23.670;2022-12-07T03:37:21;91345.84;;;4.80;88.50
44481;BME280;30184;42.018;23.670;2022-12-07T03:39:58;91436.56;;;5.55;88.76
44481;BME280;30184;42.018;23.670;2022-12-07T03:42:32;91443.84;;;5.54;88.46
44481;BME280;30184;42.018;23.670;2022-12-07T03:45:03;91441.16;;;5.54;88.73
44481;BME280;30184;42.018;23.670;2022-12-07T03:47:41;91441.56;;;5.53;88.25
44481;BME280;30184;42.018;23.670;2022-12-07T03:50:16;91442.72;;;5.52;88.09
44481;BME280;30184;42.018;23.670;2022-12-07T03:52:53;91442.72;;;5.52;88.06
44481;BME280;30184;42.018;23.670;2022-12-07T03:55:27;91439.25;;;5.51;88.01
44481;BME280;30184;42.018;23.670;2022-12-07T03:57:58;91439.66;;;5.50;87.85
44481;BME280;30184;42.018;23.670;2022-12-07T04:00:28;91444.28;;;5.49;87.86
44481;BME280;30184;42.018;23.670;2022-12-07T04:02:59;91438.91;;;5.49;87.69
44481;BME280;30184;42.018;23.670;2022-12-07T04:05:28;91437.03;;;5.46;87.68
44481;BME280;30184;42.018;23.670;2022-12-07T04:07:57;91438.59;;;5.40;88.06
44481;BME280;30184;42.018;23.670;2022-12-07T04:10:26;91440.50;;;5.43;88.39
44481;BME280;30184;42.018;23.670;2022-12-07T04:12:55;91170.78;;;3.59;88.29
44481;BME280;30184;42.018;23.670;2022-12-07T04:15:24;91434.78;;;5.38;88.60
44481;BME280;30184;42.018;23.670;2022-12-07T04:17:53;91425.22;;;5.33;88.80
44481;BME280;30184;42.018;23.670;2022-12-07T04:20:24;91431.34;;;5.37;88.98
44481;BME280;30184;42.018;23.670;2022-12-07T04:22:53;91430.94;;;5.39;88.94
44481;BME280;30184;42.018;23.670;2022-12-07T04:25:22;91386.28;;;5.07;88.68
44481;BME280;30184;42.018;23.670;2022-12-07T04:27:51;91418.31;;;5.32;88.70
44481;BME280;30184;42.018;23.670;2022-12-07T04:30:21;91426.47;;;5.25;88.87
44481;BME280;30184;42.018;23.670;2022-12-07T04:32:50;91423.00;;;5.24;89.00
44481;BME280;30184;42.018;23.670;2022-12-07T04:35:20;91422.63;;;5.26;89.19
44481;BME280;30184;42.018;23.670;2022-12-07T04:37:50;91417.59;;;5.28;89.25
44481;BME280;30184;42.018;23.670;2022-12-07T04:40:19;91416.03;;;5.31;89.46
44481;BME280;30184;42.018;23.670;2022-12-07T04:42:48;91411.78;;;5.33;89.58
44481;BME280;30184;42.018;23.670;2022-12-07T04:45:17;91416.38;;;5.36;89.35
44481;BME280;30184;42.018;23.670;2022-12-07T04:47:46;91423.63;;;5.39;89.33
44481;BME280;30184;42.018;23.670;2022-12-07T04:50:15;91406.84;;;5.28;89.10
44481;BME280;30184;42.018;23.670;2022-12-07T04:52:44;91430.91;;;5.42;89.05
44481;BME280;30184;42.018;23.670;2022-12-07T04:55:15;91429.75;;;5.43;88.77
44481;BME280;30184;42.018;23.670;2022-12-07T04:57:44;91426.69;;;5.41;88.78
44481;BME280;30184;42.018;23.670;2022-12-07T05:00:13;91428.25;;;5.39;88.68
44481;BME280;30184;42.018;23.670;2022-12-07T05:02:42;91434.38;;;5.39;88.70
44481;BME280;30184;42.018;23.670;2022-12-07T05:05:11;91427.47;;;5.38;88.75
44481;BME280;30184;42.018;23.670;2022-12-07T05:07:40;91431.34;;;5.37;88.68
44481;BME280;30184;42.018;23.670;2022-12-07T05:10:10;91430.63;;;5.33;88.99
44481;BME280;30184;42.018;23.670;2022-12-07T05:12:40;91436.00;;;5.33;89.24
44481;BME280;30184;42.018;23.670;2022-12-07T05:15:09;91431.38;;;5.34;89.37
44481;BME280;30184;42.018;23.670;2022-12-07T05:17:39;91432.13;;;5.34;89.33
44481;BME280;30184;42.018;23.670;2022-12-07T05:20:09;91435.22;;;5.33;89.19
44481;BME280;30184;42.018;23.670;2022-12-07T05:22:38;91437.16;;;5.32;89.40
44481;BME280;30184;42.018;23.670;2022-12-07T05:25:08;91440.25;;;5.31;89.41
44481;BME280;30184;42.018;23.670;2022-12-07T05:27:37;91446.38;;;5.31;89.54
44481;BME280;30184;42.018;23.670;2022-12-07T05:30:08;91418.94;;;5.09;89.57
44481;BME280;30184;42.018;23.670;2022-12-07T05:32:38;91437.16;;;5.32;89.54
44481;BME280;30184;42.018;23.670;2022-12-07T05:35:07;91459.06;;;5.34;89.78
44481;BME280;30184;42.018;23.670;2022-12-07T05:37:37;91449.06;;;5.35;89.75
44481;BME280;30184;42.018;23.670;2022-12-07T05:40:07;91447.13;;;5.35;89.96
44481;BME280;30184;42.018;23.670;2022-12-07T05:42:36;91449.41;;;5.37;89.69
44481;BME280;30184;42.018;23.670;2022-12-07T05:45:08;91469.03;;;5.37;89.53
44481;BME280;30184;42.018;23.670;2022-12-07T05:47:37;91442.97;;;5.27;89.46
44481;BME280;30184;42.018;23.670;2022-12-07T05:50:07;91449.75;;;5.39;89.54
44481;BME280;30184;42.018;23.670;2022-12-07T05:52:36;91447.50;;;5.37;89.52
44481;BME280;30184;42.018;23.670;2022-12-07T05:55:06;91450.59;;;5.36;89.45
44481;BME280;30184;42.018;23.670;2022-12-07T05:57:35;91453.66;;;5.34;89.60
44481;BME280;30184;42.018;23.670;2022-12-07T06:00:05;91445.22;;;5.32;89.61
44481;BME280;30184;42.018;23.670;2022-12-07T06:02:40;91457.50;;;5.33;89.87
44481;BME280;30184;42.018;23.670;2022-12-07T06:05:09;91449.06;;;5.35;89.93
44481;BME280;30184;42.018;23.670;2022-12-07T06:07:38;91448.66;;;5.36;89.76
44481;BME280;30184;42.018;23.670;2022-12-07T06:10:07;91451.75;;;5.35;89.82
44481;BME280;30184;42.018;23.670;2022-12-07T06:12:36;91459.41;;;5.36;89.65
44481;BME280;30184;42.018;23.670;2022-12-07T06:15:07;91459.06;;;5.34;89.36
44481;BME280;30184;42.018;23.670;2022-12-07T06:17:36;91460.97;;;5.34;89.24
44481;BME280;30184;42.018;23.670;2022-12-07T06:20:07;91444.50;;;5.28;89.06
44481;BME280;30184;42.018;23.670;2022-12-07T06:22:36;91452.13;;;5.33;88.95
44481;BME280;30184;42.018;23.670;2022-12-07T06:25:06;91458.69;;;5.32;89.18
44481;BME280;30184;42.018;23.670;2022-12-07T06:27:36;91453.28;;;5.32;89.09
44481;BME280;30184;42.018;23.670;2022-12-07T06:30:06;91453.66;;;5.34;88.77
44481;BME280;30184;42.018;23.670;2022-12-07T06:32:36;91463.28;;;5.35;88.82
44481;BME280;30184;42.018;23.670;2022-12-07T06:35:07;91469.41;;;5.36;88.49
44481;BME280;30184;42.018;23.670;2022-12-07T06:37:37;91459.06;;;5.34;88.40
44481;BME280;30184;42.018;23.670;2022-12-07T06:40:07;91462.88;;;5.37;88.34
44481;BME280;30184;42.018;23.670;2022-12-07T06:42:36;91459.41;;;5.36;88.17
44481;BME280;30184;42.018;23.670;2022-12-07T06:45:06;91458.59;;;5.39;88.04
44481;BME280;30184;42.018;23.670;2022-12-07T06:47:35;91468.56;;;5.42;87.95
44481;BME280;30184;42.018;23.670;2022-12-07T06:50:09;91460.53;;;5.39;87.76
44481;BME280;30184;42.018;23.670;2022-12-07T06:52:38;91463.22;;;5.39;87.64
44481;BME280;30184;42.018;23.670;2022-12-07T06:55:07;91462.81;;;5.40;87.78
44481;BME280;30184;42.018;23.670;2022-12-07T06:57:36;91465.88;;;5.46;87.93
44481;BME280;30184;42.018;23.670;2022-12-07T07:00:07;91461.97;;;5.50;88.06
44481;BME280;30184;42.018;23.670;2022-12-07T07:02:36;91463.81;;;5.57;87.92
44481;BME280;30184;42.018;23.670;2022-12-07T07:05:08;91468.72;;;5.66;87.71
44481;BME280;30184;42.018;23.670;2022-12-07T07:07:37;91448.38;;;5.65;87.45
44481;BME280;30184;42.018;23.670;2022-12-07T07:10:13;91451.97;;;5.85;87.22
44481;BME280;30184;42.018;23.670;2022-12-07T07:12:42;91458.84;;;5.93;86.97
44481;BME280;30184;42.018;23.670;2022-12-07T07:15:11;91454.91;;;6.01;86.66
44481;BME280;30184;42.018;23.670;2022-12-07T07:17:40;91452.88;;;6.09;86.44
44481;BME280;30184;42.018;23.670;2022-12-07T07:20:12;91460.09;;;6.15;86.00
44481;BME280;30184;42.018;23.670;2022-12-07T07:22:41;91465.47;;;6.19;85.84
44481;BME280;30184;42.018;23.670;2022-12-07T07:25:10;91462.69;;;6.22;85.48
44481;BME280;30184;42.018;23.670;2022-12-07T07:27:39;91460.75;;;6.26;85.44
44481;BME280;30184;42.018;23.670;2022-12-07T07:30:09;91462.31;;;6.24;85.37
44481;BME280;30184;42.018;23.670;2022-12-07T07:32:38;91465.72;;;6.28;85.84
44481;BME280;30184;42.018;23.670;2022-12-07T07:35:08;91466.41;;;6.35;85.53
44481;BME280;30184;42.018;23.670;2022-12-07T07:37:38;91471.03;;;6.35;84.85
44481;BME280;30184;42.018;23.670;2022-12-07T07:40:08;91464.88;;;6.34;84.67
44481;BME280;30184;42.018;23.670;2022-12-07T07:42:38;91460.28;;;6.31;84.64
44481;BME280;30184;42.018;23.670;2022-12-07T07:45:08;91472.16;;;6.38;84.68
44481;BME280;30184;42.018;23.670;2022-12-07T07:47:37;91471.75;;;6.39;84.64
44481;BME280;30184;42.018;23.670;2022-12-07T07:50:07;91471.69;;;6.43;84.76
44481;BME280;30184;42.018;23.670;2022-12-07T07:52:38;91464.72;;;6.45;84.67
44481;BME280;30184;42.018;23.670;2022-12-07T07:55:07;91465.44;;;6.49;84.78
44481;BME280;30184;42.018;23.670;2022-12-07T07:57:38;91475.00;;;6.54;84.60
44481;BME280;30184;42.018;23.670;2022-12-07T08:00:09;91467.94;;;6.63;84.25
44481;BME280;30184;42.018;23.670;2022-12-07T08:02:40;91469.41;;;6.68;84.12
44481;BME280;30184;42.018;23.670;2022-12-07T08:05:11;91457.84;;;6.67;84.21
44481;BME280;30184;42.018;23.670;2022-12-07T08:07:41;91467.72;;;6.78;83.72
44481;BME280;30184;42.018;23.670;2022-12-07T08:10:12;91472.72;;;6.79;83.48
44481;BME280;30184;42.018;23.670;2022-12-07T08:12:42;91475.78;;;6.81;83.02
44481;BME280;30184;42.018;23.670;2022-12-07T08:15:26;91479.59;;;6.84;82.87
44481;BME280;30184;42.018;23.670;2022-12-07T08:17:55;91436.00;;;6.62;82.93
44481;BME280;30184;42.018;23.670;2022-12-07T08:20:24;91467.22;;;6.86;83.02
44481;BME280;30184;42.018;23.670;2022-12-07T08:22:55;91463.00;;;6.85;81.98
44481;BME280;30184;42.018;23.670;2022-12-07T08:25:24;91463.34;;;6.87;82.05
44481;BME280;30184;42.018;23.670;2022-12-07T08:27:54;91496.44;;;6.91;81.86
44481;BME280;30184;42.018;23.670;2022-12-07T08:30:23;91467.81;;;6.97;81.97
44481;BME280;30184;42.018;23.670;2022-12-07T08:32:52;91459.31;;;6.99;81.56
44481;BME280;30184;42.018;23.670;2022-12-07T08:35:21;91440.16;;;6.93;81.22
44481;BME280;30184;42.018;23.670;2022-12-07T08:37:50;91467.53;;;7.15;81.29
44481;BME280;30184;42.018;23.670;2022-12-07T08:40:21;91460.16;;;7.19;80.95
44481;BME280;30184;42.018;23.670;2022-12-07T08:42:51;91454.72;;;7.23;80.62
44481;BME280;30184;42.018;23.670;2022-12-07T08:45:21;91461.97;;;7.26;80.27
44481;BME280;30184;42.018;23.670;2022-12-07T08:47:56;91468.09;;;7.30;79.83
44481;BME280;30184;42.018;23.670;2022-12-07T08:50:26;91466.91;;;7.31;79.70
44481;BME280;30184;42.018;23.670;2022-12-07T08:52:57;91462.69;;;7.30;79.75
44481;BME280;30184;42.018;23.670;2022-12-07T08:55:28;91461.09;;;7.32;80.06
44481;BME280;30184;42.018;23.670;2022-12-07T08:57:58;91487.22;;;7.39;79.84
44481;BME280;30184;42.018;23.670;2022-12-07T09:00:28;91429.53;;;7.29;79.61
44481;BME280;30184;42.018;23.670;2022-12-07T09:02:57;91422.59;;;7.28;78.95
44481;BME280;30184;42.018;23.670;2022-12-07T09:05:26;91448.81;;;7.51;79.18
44481;BME280;30184;42.018;23.670;2022-12-07T09:08:00;91448.00;;;7.54;79.27
44481;BME280;30184;42.018;23.670;2022-12-07T09:10:31;91450.09;;;7.66;79.27
44481;BME280;30184;42.018;23.670;2022-12-07T09:13:00;91447.31;;;7.70;78.63
44481;BME280;30184;42.018;23.670;2022-12-07T09:15:29;91444.56;;;7.73;78.46
44481;BME280;30184;42.018;23.670;2022-12-07T09:17:59;91443.75;;;7.76;78.41
44481;BME280;30184;42.018;23.670;2022-12-07T09:20:28;91433.28;;;7.78;77.84
44481;BME280;30184;42.018;23.670;2022-12-07T09:22:57;91432.44;;;7.81;78.31
44481;BME280;30184;42.018;23.670;2022-12-07T09:25:26;91421.94;;;7.87;78.26
44481;BME280;30184;42.018;23.670;2022-12-07T09:27:57;91413.38;;;7.88;78.17
44481;BME280;30184;42.018;23.670;2022-12-07T09:30:27;91402.72;;;8.01;77.81
44481;BME280;30184;42.018;23.670;2022-12-07T09:32:56;91401.50;;;8.06;77.34
44481;BME280;30184;42.018;23.670;2022-12-07T09:35:26;91402.44;;;8.15;77.47
44481;BME280;30184;42.018;23.670;2022-12-07T09:37:55;91382.41;;;8.13;77.25
44481;BME280;30184;42.018;23.670;2022-12-07T09:40:24;91400.84;;;8.38;76.62
44481;BME280;30184;42.018;23.670;2022-12-07T09:42:54;91393.41;;;8.42;76.14
44481;BME280;30184;42.018;23.670;2022-12-07T09:45:29;91395.72;;;8.43;75.77
44481;BME280;30184;42.018;23.670;2022-12-07T09:48:00;91386.16;;;8.55;75.53
44481;BME280;30184;42.018;23.670;2022-12-07T09:50:31;91368.84;;;8.52;75.27
44481;BME280;30184;42.018;23.670;2022-12-07T09:53:06;91380.25;;;8.60;75.30
44481;BME280;30184;42.018;23.670;2022-12-07T09:55:36;91374.84;;;8.60;75.42
44481;BME280;30184;42.018;23.670;2022-12-07T09:58:10;91344.19;;;8.31;75.37
44481;BME280;30184;42.018;23.670;2022-12-07T10:00:43;91379.16;;;8.57;75.18
44481;BME280;30184;42.018;23.670;2022-12-07T10:03:13;91354.72;;;8.45;75.56
44481;BME280;30184;42.018;23.670;2022-12-07T10:05:45;91379.84;;;8.62;75.36
44481;BME280;30184;42.018;23.670;2022-12-07T10:08:14;91372.66;;;8.71;75.43
44481;BME280;30184;42.018;23.670;2022-12-07T10:10:46;91369.53;;;8.73;75.66
44481;BME280;30184;42.018;23.670;2022-12-07T10:13:19;91373.84;;;8.70;75.39
44481;BME280;30184;42.018;23.670;2022-12-07T10:15:53;91375.78;;;8.70;74.82
44481;BME280;30184;42.018;23.670;2022-12-07T10:18:27;91364.34;;;8.62;74.76
44481;BME280;30184;42.018;23.670;2022-12-07T10:21:03;91362.41;;;8.63;74.66
44481;BME280;30184;42.018;23.670;2022-12-07T10:23:36;91353.47;;;8.49;75.12
44481;BME280;30184;42.018;23.670;2022-12-07T10:26:27;91362.94;;;8.57;75.62
44481;BME280;30184;42.018;23.670;2022-12-07T10:28:59;91300.84;;;8.18;75.17
44481;BME280;30184;42.018;23.670;2022-12-07T10:31:30;91365.13;;;8.63;75.04
44481;BME280;30184;42.018;23.670;2022-12-07T10:34:00;91361.22;;;8.64;75.00
44481;BME280;30184;42.018;23.670;2022-12-07T10:36:35;91346.94;;;8.63;74.98
44481;BME280;30184;42.018;23.670;2022-12-07T10:39:13;91351.63;;;8.79;74.25
44481;BME280;30184;42.018;23.670;2022-12-07T10:41:53;91351.44;;;8.86;74.01
44481;BME280;30184;42.018;23.670;2022-12-07T10:44:26;91350.91;;;8.91;73.91
44481;BME280;30184;42.018;23.670;2022-12-07T10:47:14;91351.94;;;8.97;72.96
44481;BME280;30184;42.018;23.670;2022-12-07T10:52:58;91352.28;;;9.15;73.28
44481;BME280;30184;42.018;23.670;2022-12-07T10:55:44;91343.53;;;9.24;72.06
44481;BME280;30184;42.018;23.670;2022-12-07T10:58:30;91354.19;;;9.31;71.69
44481;BME280;30184;42.018;23.670;2022-12-07T11:01:05;91343.16;;;9.38;71.52
44481;BME280;30184;42.018;23.670;2022-12-07T11:03:53;91340.03;;;9.40;71.07
44481;BME280;30184;42.018;23.670;2022-12-07T11:06:31;91339.38;;;9.35;71.08
44481;BME280;30184;42.018;23.670;2022-12-07T11:09:26;91335.66;;;9.29;71.86
44481;BME280;30184;42.018;23.670;2022-12-07T11:12:13;91332.03;;;9.20;71.35
44481;BME280;30184;42.018;23.670;2022-12-07T11:14:54;91324.31;;;9.18;71.67
44481;BME280;30184;42.018;23.670;2022-12-07T11:17:33;91328.97;;;9.18;71.79
44481;BME280;30184;42.018;23.670;2022-12-07T11:20:18;91331.25;;;9.19;71.96
44481;BME280;30184;42.018;23.670;2022-12-07T11:22:58;91323.56;;;9.18;72.09
44481;BME280;30184;42.018;23.670;2022-12-07T11:25:32;91319.94;;;9.24;71.97
44481;BME280;30184;42.018;23.670;2022-12-07T11:28:20;91311.97;;;9.33;72.62
44481;BME280;30184;42.018;23.670;2022-12-07T11:30:57;91320.09;;;9.33;71.51
44481;BME280;30184;42.018;23.670;2022-12-07T11:33:36;91313.03;;;9.36;72.30
44481;BME280;30184;42.018;23.670;2022-12-07T11:36:20;91303.28;;;9.39;71.80
44481;BME280;30184;42.018;23.670;2022-12-07T11:39:00;91288.16;;;9.41;70.87
44481;BME280;30184;42.018;23.670;2022-12-07T11:41:33;91296.75;;;9.52;70.94
44481;BME280;30184;42.018;23.670;2022-12-07T11:44:06;91243.22;;;9.15;71.32
44481;BME280;30184;42.018;23.670;2022-12-07T11:46:45;91296.22;;;9.57;70.93
44481;BME280;30184;42.018;23.670;2022-12-07T11:49:21;91278.84;;;9.42;70.26
44481;BME280;30184;42.018;23.670;2022-12-07T11:51:57;91288.41;;;9.59;70.53
44481;BME280;30184;42.018;23.670;2022-12-07T11:54:32;91281.06;;;9.60;71.36
44481;BME280;30184;42.018;23.670;2022-12-07T11:57:14;91265.09;;;9.49;71.06
44481;BME280;30184;42.018;23.670;2022-12-07T11:59:50;91278.78;;;9.58;70.90
44481;BME280;30184;42.018;23.670;2022-12-07T12:02:26;91276.81;;;9.59;71.13
44481;BME280;30184;42.018;23.670;2022-12-07T12:05:02;91266.53;;;9.54;70.72
44481;BME280;30184;42.018;23.670;2022-12-07T12:07:36;91270.44;;;9.53;70.82
44481;BME280;30184;42.018;23.670;2022-12-07T12:10:32;91272.66;;;9.42;71.23
44481;BME280;30184;42.018;23.670;2022-12-07T12:16:54;91264.81;;;9.31;72.16
44481;BME280;30184;42.018;23.670;2022-12-07T12:19:33;91250.47;;;9.18;71.67
44481;BME280;30184;42.018;23.670;2022-12-07T12:22:12;91263.56;;;9.35;71.78
44481;BME280;30184;42.018;23.670;2022-12-07T12:24:46;91260.09;;;9.35;72.16
44481;BME280;30184;42.018;23.670;2022-12-07T12:27:22;91253.47;;;9.36;72.01
44481;BME280;30184;42.018;23.670;2022-12-07T12:29:54;91259.47;;;9.44;72.15
44481;BME280;30184;42.018;23.670;2022-12-07T12:32:33;91245.50;;;9.58;72.16
44481;BME280;30184;42.018;23.670;2022-12-07T12:35:22;91241.06;;;9.64;71.01
44481;BME280;30184;42.018;23.670;2022-12-07T12:38:26;91241.22;;;9.73;70.92
44481;BME280;30184;42.018;23.670;2022-12-07T12:40:57;91238.50;;;9.73;71.13
44481;BME280;30184;42.018;23.670;2022-12-07T12:43:47;91246.19;;;9.74;70.60
44481;BME280;30184;42.018;23.670;2022-12-07T12:46:36;91245.00;;;9.76;71.14
44481;BME280;30184;42.018;23.670;2022-12-07T12:49:40;91236.44;;;9.77;70.90
44481;BME280;30184;42.018;23.670;2022-12-07T12:55:25;91163.00;;;9.08;71.25
44481;BME280;30184;42.018;23.670;2022-12-07T12:58:30;91240.88;;;9.71;70.91
44481;BME280;30184;42.018;23.670;2022-12-07T13:04:49;91238.50;;;9.73;71.06
44481;BME280;30184;42.018;23.670;2022-12-07T13:07:49;91230.38;;;9.73;71.01
44481;BME280;30184;42.018;23.670;2022-12-07T13:10:37;91232.22;;;9.76;70.84
44481;BME280;30184;42.018;23.670;2022-12-07T13:13:32;91226.03;;;9.76;70.75
44481;BME280;30184;42.018;23.670;2022-12-07T13:22:43;91216.28;;;9.78;70.34
44481;BME280;30184;42.018;23.670;2022-12-07T13:25:19;91154.25;;;9.29;70.45
44481;BME280;30184;42.018;23.670;2022-12-07T13:27:56;91214.66;;;9.68;70.49
44481;BME280;30184;42.018;23.670;2022-12-07T13:30:27;91224.81;;;9.64;70.96
44481;BME280;30184;42.018;23.670;2022-12-07T13:32:59;91221.38;;;9.63;71.04
44481;BME280;30184;42.018;23.670;2022-12-07T13:35:33;91227.09;;;9.65;71.75
44481;BME280;30184;42.018;23.670;2022-12-07T13:38:05;91227.53;;;9.64;71.76
44481;BME280;30184;42.018;23.670;2022-12-07T13:40:35;91227.22;;;9.62;71.44
44481;BME280;30184;42.018;23.670;2022-12-07T13:43:13;91218.84;;;9.56;71.67
44481;BME280;30184;42.018;23.670;2022-12-07T13:45:44;91222.66;;;9.59;72.03
44481;BME280;30184;42.018;23.670;2022-12-07T13:48:23;91226.22;;;9.56;71.82
44481;BME280;30184;42.018;23.670;2022-12-07T13:50:54;91220.28;;;9.61;71.96
44481;BME280;30184;42.018;23.670;2022-12-07T13:53:24;91253.75;;;9.54;71.88